createdAt,value
2018-01-15T00:01:28.022Z,86.97
2018-01-15T00:03:57.272Z,86.80
2018-01-15T00:06:27.529Z,86.49
2018-01-15T00:08:55.908Z,86.71
2018-01-15T00:11:24.297Z,86.97
2018-01-15T00:13:53.574Z,87.19
2018-01-15T00:16:22.901Z,87.62
2018-01-15T00:18:51.253Z,87.60
2018-01-15T00:21:19.613Z,87.33
2018-01-15T00:23:49.025Z,87.35
2018-01-15T00:26:17.316Z,87.12
2018-01-15T00:28:45.668Z,86.49
2018-01-15T00:31:17.462Z,86.82
2018-01-15T00:33:45.864Z,86.83
2018-01-15T00:36:14.214Z,86.38
2018-01-15T00:38:44.517Z,86.72
2018-01-15T00:41:13.721Z,87.45
2018-01-15T00:43:44.395Z,87.50
2018-01-15T00:46:13.859Z,87.02
2018-01-15T00:48:42.242Z,86.64
2018-01-15T00:51:12.547Z,87.00
2018-01-15T00:53:40.847Z,87.34
2018-01-15T00:56:10.171Z,87.34
2018-01-15T00:58:40.362Z,87.05
2018-01-15T01:01:09.667Z,86.60
2018-01-15T01:03:38.066Z,86.54
2018-01-15T01:06:06.438Z,87.02
2018-01-15T01:08:34.854Z,86.99
2018-01-15T01:11:03.184Z,86.46
2018-01-15T01:13:31.676Z,86.59
2018-01-15T01:16:01.220Z,87.03
2018-01-15T01:18:30.482Z,86.78
2018-01-15T01:20:59.196Z,86.49
2018-01-15T01:23:31.242Z,86.44
2018-01-15T01:25:59.658Z,86.37
2018-01-15T01:28:28.932Z,86.80
2018-01-15T01:30:57.303Z,86.78
2018-01-15T01:33:29.138Z,87.13
2018-01-15T01:35:59.282Z,87.31
2018-01-15T01:38:29.523Z,86.83
2018-01-15T01:40:57.893Z,86.86
2018-01-15T01:43:26.268Z,87.18
2018-01-15T01:45:54.714Z,87.05
2018-01-15T01:48:23.990Z,87.17
2018-01-15T01:50:53.233Z,87.27
2018-01-15T01:53:22.623Z,87.44
2018-01-15T01:55:50.971Z,87.14
2018-01-15T01:58:19.316Z,86.44
2018-01-15T02:00:47.789Z,86.85
2018-01-15T02:03:16.124Z,86.95
2018-01-15T02:05:47.525Z,86.87
2018-01-15T02:08:16.820Z,87.04
2018-01-15T02:10:46.117Z,87.11
2018-01-15T02:13:14.605Z,87.09
2018-01-15T02:15:47.197Z,87.84
2018-01-15T02:18:15.576Z,88.70
2018-01-15T02:20:43.950Z,88.87
2018-01-15T02:23:14.260Z,89.01
2018-01-15T02:25:42.591Z,89.21
2018-01-15T02:28:10.940Z,89.01
2018-01-15T02:30:39.348Z,88.99
2018-01-15T02:33:08.632Z,88.96
2018-01-15T02:35:38.307Z,88.74
2018-01-15T02:38:06.594Z,87.98
2018-01-15T02:40:38.982Z,87.58
2018-01-15T02:43:07.356Z,87.30
2018-01-15T02:45:35.783Z,87.89
2018-01-15T02:48:08.742Z,88.10
2018-01-15T02:50:42.897Z,88.14
2018-01-15T02:53:12.577Z,88.34
2018-01-15T02:55:47.074Z,88.54
2018-01-15T02:58:16.385Z,88.19
2018-01-15T03:00:44.762Z,88.32
2018-01-15T03:03:13.149Z,88.32
2018-01-15T03:05:41.531Z,88.47
2018-01-15T03:08:15.426Z,87.99
2018-01-15T03:10:44.733Z,87.21
2018-01-15T03:13:14.029Z,87.01
2018-01-15T03:15:46.101Z,87.40
2018-01-15T03:18:15.403Z,87.80
2018-01-15T03:20:49.626Z,87.84
2018-01-15T03:23:18.926Z,87.37
2018-01-15T03:25:50.379Z,87.85
2018-01-15T03:28:18.762Z,88.27
2018-01-15T03:30:47.020Z,88.07
2018-01-15T03:33:18.887Z,87.45
2018-01-15T03:35:47.250Z,87.58
2018-01-15T03:38:15.664Z,87.71
2018-01-15T03:40:44.960Z,87.70
2018-01-15T03:43:13.318Z,87.95
2018-01-15T03:45:46.024Z,87.65
2018-01-15T03:48:14.390Z,87.68
2018-01-15T03:50:43.693Z,87.59
2018-01-15T03:53:12.070Z,87.79
2018-01-15T03:55:40.561Z,88.05
2018-01-15T03:58:08.855Z,88.31
2018-01-15T04:00:38.161Z,88.34
2018-01-15T04:03:06.909Z,88.32
2018-01-15T04:05:39.907Z,88.11
2018-01-15T04:08:10.350Z,87.85
2018-01-15T04:10:38.730Z,87.88
2018-01-15T04:13:08.954Z,87.60
2018-01-15T04:15:41.019Z,87.54
2018-01-15T04:18:09.481Z,87.51
2018-01-15T04:20:37.786Z,87.08
2018-01-15T04:23:07.064Z,86.76
2018-01-15T04:25:37.712Z,86.55
2018-01-15T04:28:08.132Z,86.48
2018-01-15T04:30:36.390Z,86.44
2018-01-15T04:33:05.094Z,86.58
2018-01-15T04:35:33.435Z,86.26
2018-01-15T04:38:02.817Z,86.30
2018-01-15T04:40:31.203Z,86.71
2018-01-15T04:42:59.749Z,86.39
2018-01-15T04:45:28.098Z,86.85
2018-01-15T04:47:56.413Z,86.50
2018-01-15T04:50:25.275Z,86.35
2018-01-15T04:52:53.964Z,86.15
2018-01-15T04:55:22.314Z,86.12
2018-01-15T04:57:50.644Z,86.25
2018-01-15T05:00:18.972Z,86.14
2018-01-15T05:02:48.337Z,86.57
2018-01-15T05:05:16.737Z,87.40
2018-01-15T05:07:45.563Z,87.48
2018-01-15T05:10:15.475Z,87.00
2018-01-15T05:12:43.879Z,86.66
2018-01-15T05:15:14.104Z,87.06
2018-01-15T05:17:43.482Z,86.82
2018-01-15T05:20:12.712Z,86.49
2018-01-15T05:22:41.097Z,86.48
2018-01-15T05:25:09.457Z,86.70
2018-01-15T05:27:39.694Z,86.87
2018-01-15T05:30:10.328Z,86.78
2018-01-15T05:32:38.612Z,86.74
2018-01-15T05:35:07.051Z,87.36
2018-01-15T05:37:36.311Z,87.48
2018-01-15T05:40:04.700Z,87.33
2018-01-15T05:42:35.059Z,86.99
2018-01-15T05:45:04.206Z,86.76
2018-01-15T05:47:34.435Z,86.48
2018-01-15T05:50:03.762Z,86.52
2018-01-15T05:52:32.094Z,86.22
2018-01-15T05:55:00.481Z,87.13
2018-01-15T05:57:31.014Z,88.00
2018-01-15T06:00:01.244Z,88.17
2018-01-15T06:02:30.530Z,88.32
2018-01-15T06:05:02.000Z,88.67
2018-01-15T06:07:30.350Z,88.81
2018-01-15T06:09:58.769Z,88.70
2018-01-15T06:12:27.123Z,88.07
2018-01-15T06:14:56.429Z,87.73
2018-01-15T06:17:25.759Z,87.58
2018-01-15T06:19:54.109Z,87.26
2018-01-15T06:22:23.455Z,86.87
2018-01-15T06:24:55.231Z,86.61
2018-01-15T06:27:24.514Z,86.33
2018-01-15T06:29:53.825Z,86.54
2018-01-15T06:32:22.149Z,87.20
2018-01-15T06:34:50.553Z,87.65
2018-01-15T06:37:19.886Z,87.13
2018-01-15T06:39:51.028Z,86.98
2018-01-15T06:42:19.352Z,87.00
2018-01-15T06:44:47.770Z,86.86
2018-01-15T06:47:18.091Z,86.87
2018-01-15T06:49:46.347Z,87.21
2018-01-15T06:52:17.022Z,86.90
2018-01-15T06:54:46.170Z,86.63
2018-01-15T06:57:16.424Z,86.29
2018-01-15T06:59:44.885Z,86.56
2018-01-15T07:02:20.605Z,86.82
2018-01-15T07:04:49.843Z,86.78
2018-01-15T07:07:19.145Z,86.34
2018-01-15T07:09:51.253Z,86.50
2018-01-15T07:12:24.495Z,86.34
2018-01-15T07:14:56.302Z,86.64
2018-01-15T07:17:26.861Z,86.56
2018-01-15T07:19:57.363Z,86.77
2018-01-15T07:22:27.904Z,86.46
2018-01-15T07:25:00.238Z,86.41
2018-01-15T07:27:28.691Z,86.56
2018-01-15T07:29:56.991Z,86.48
2018-01-15T07:32:25.396Z,86.48
2018-01-15T07:35:03.774Z,86.33
2018-01-15T07:37:36.409Z,86.51
2018-01-15T07:40:04.984Z,86.84
2018-01-15T07:42:33.330Z,87.08
2018-01-15T07:45:01.700Z,86.80
2018-01-15T07:47:31.030Z,86.80
2018-01-15T07:49:59.495Z,86.69
2018-01-15T07:52:27.808Z,86.58
2018-01-15T08:00:51.261Z,86.65
2018-01-15T08:03:25.282Z,86.79
2018-01-15T08:08:46.274Z,87.08
2018-01-15T08:11:15.893Z,87.15
2018-01-15T08:13:48.479Z,88.18
2018-01-15T08:16:20.683Z,88.98
2018-01-15T08:18:51.085Z,88.86
2018-01-15T08:21:20.135Z,88.59
2018-01-15T08:23:50.711Z,88.21
2018-01-15T08:26:20.790Z,88.90
2018-01-15T08:28:49.400Z,88.87
2018-01-15T08:31:18.770Z,88.58
2018-01-15T08:33:47.395Z,88.18
2018-01-15T08:36:16.171Z,87.91
2018-01-15T08:38:53.986Z,87.42
2018-01-15T08:41:22.919Z,87.18
2018-01-15T08:43:51.248Z,87.17
2018-01-15T08:46:23.415Z,86.84
2018-01-15T08:48:52.571Z,87.15
2018-01-15T08:51:22.187Z,88.53
2018-01-15T08:53:50.549Z,88.34
2018-01-15T08:56:22.079Z,87.72
2018-01-15T08:58:54.393Z,87.88
2018-01-15T09:01:22.762Z,87.41
2018-01-15T09:03:51.178Z,87.09
2018-01-15T09:06:19.541Z,86.91
2018-01-15T09:08:47.902Z,87.31
2018-01-15T09:11:18.436Z,87.60
2018-01-15T09:13:46.827Z,87.41
2018-01-15T09:16:15.211Z,87.44
2018-01-15T09:18:43.707Z,87.43
2018-01-15T09:21:16.092Z,87.44
2018-01-15T09:23:44.400Z,87.71
2018-01-15T09:26:14.077Z,88.05
2018-01-15T10:22:53.791Z,88.06
2018-01-15T10:25:23.100Z,87.90
2018-01-15T10:27:53.448Z,87.69
2018-01-15T10:30:24.641Z,87.28
2018-01-15T10:32:58.277Z,87.33
2018-01-15T10:35:26.587Z,86.93
2018-01-15T10:37:54.944Z,86.72
2018-01-15T10:40:26.176Z,86.56
2018-01-15T10:45:54.279Z,86.39
2018-01-15T10:48:23.319Z,86.10
2018-01-15T10:50:58.108Z,86.27
2018-01-15T10:53:27.185Z,86.19
2018-01-15T10:55:55.482Z,86.19
2018-01-15T10:58:26.128Z,86.18
2018-01-15T11:00:54.510Z,85.93
2018-01-15T11:03:22.801Z,85.81
2018-01-15T11:05:51.073Z,85.62
2018-01-15T11:08:19.519Z,85.09
2018-01-15T11:10:47.798Z,84.86
2018-01-15T11:13:16.072Z,85.17
2018-01-15T11:15:44.371Z,85.50
2018-01-15T11:18:13.447Z,85.32
2018-01-15T11:20:41.740Z,85.31
2018-01-15T11:23:10.416Z,85.52
2018-01-15T11:25:53.491Z,85.45
2018-01-15T11:28:26.426Z,85.18
2018-01-15T11:30:55.085Z,85.06
2018-01-15T11:33:24.079Z,85.19
2018-01-15T11:35:52.388Z,85.02
2018-01-15T11:38:20.667Z,85.12
2018-01-15T11:40:48.950Z,85.08
2018-01-15T11:43:17.218Z,85.10
2018-01-15T11:45:46.268Z,85.04
2018-01-15T11:48:14.552Z,85.10
2018-01-15T11:50:42.831Z,85.23
2018-01-15T11:53:11.214Z,85.18
2018-01-15T11:55:39.626Z,84.97
2018-01-15T11:58:07.912Z,85.07
2018-01-15T12:00:36.191Z,85.18
2018-01-15T12:03:04.527Z,84.95
2018-01-15T12:05:33.078Z,84.94
2018-01-15T12:08:02.124Z,84.81
2018-01-15T12:10:31.156Z,84.89
2018-01-15T12:12:59.454Z,84.71
2018-01-15T12:15:29.204Z,84.55
2018-01-15T12:17:57.493Z,84.61
2018-01-15T12:20:25.748Z,84.73
2018-01-15T12:22:54.001Z,84.85
2018-01-15T12:25:22.312Z,84.66
2018-01-15T12:27:50.621Z,84.62
2018-01-15T12:30:18.928Z,84.72
2018-01-15T12:32:48.008Z,84.88
2018-01-15T12:35:16.258Z,84.98
2018-01-15T12:37:44.705Z,85.04
2018-01-15T12:40:13.357Z,85.04
2018-01-15T12:42:45.423Z,85.13
2018-01-15T12:45:15.048Z,84.91
2018-01-15T12:47:43.317Z,84.66
2018-01-15T12:56:07.510Z,83.87
2018-01-15T12:58:37.164Z,83.81
2018-01-15T13:01:06.379Z,83.45
2018-01-15T13:03:34.709Z,83.27
2018-01-15T13:06:07.997Z,82.70
2018-01-15T13:11:41.914Z,82.27
2018-01-15T13:14:10.303Z,81.97
2018-01-15T13:16:38.676Z,81.68
2018-01-15T13:19:10.755Z,81.38
2018-01-15T13:21:39.101Z,81.36
2018-01-15T13:24:07.494Z,81.19
2018-01-15T13:26:39.281Z,81.27
2018-01-15T13:29:07.630Z,80.89
2018-01-15T13:31:36.034Z,81.09
2018-01-15T13:34:07.779Z,80.99
2018-01-15T13:36:36.158Z,80.46
2018-01-15T13:39:05.552Z,80.17
2018-01-15T13:41:35.988Z,80.62
2018-01-15T13:44:04.680Z,79.88
2018-01-15T13:46:33.086Z,79.82
2018-01-15T13:49:01.428Z,79.49
2018-01-15T13:51:33.194Z,79.08
2018-01-15T13:54:01.560Z,79.71
2018-01-15T13:56:29.935Z,78.86
2018-01-15T13:59:04.853Z,78.81
2018-01-15T14:01:33.160Z,78.75
2018-01-15T14:04:01.568Z,78.67
2018-01-15T14:06:29.932Z,78.47
2018-01-15T14:09:02.315Z,78.65
2018-01-15T14:11:30.683Z,78.64
2018-01-15T14:13:59.051Z,78.37
2018-01-15T14:16:27.475Z,78.74
2018-01-15T14:18:57.945Z,79.15
2018-01-15T14:21:31.692Z,78.70
2018-01-15T14:23:59.946Z,78.50
2018-01-15T14:26:32.397Z,78.56
2018-01-15T14:29:01.620Z,78.96
2018-01-15T14:31:30.030Z,78.59
2018-01-15T14:33:58.393Z,79.04
2018-01-15T14:36:29.830Z,79.08
2018-01-15T14:39:00.072Z,79.36
2018-01-15T14:41:28.414Z,79.95
2018-01-15T14:44:11.193Z,80.18
2018-01-15T14:46:39.636Z,80.83
2018-01-15T14:49:08.016Z,81.52
2018-01-15T14:51:40.408Z,81.92
2018-01-15T14:54:12.507Z,82.35
2018-01-15T14:56:40.860Z,83.34
2018-01-15T14:59:12.634Z,84.10
2018-01-15T15:01:41.003Z,84.35
2018-01-15T15:04:09.359Z,84.45
2018-01-15T15:06:41.436Z,84.84
2018-01-15T15:09:13.485Z,84.99
2018-01-15T15:11:41.887Z,86.02
2018-01-15T15:14:13.325Z,86.03
2018-01-15T15:16:47.823Z,86.14
2018-01-15T15:19:17.225Z,86.15
2018-01-15T15:21:45.565Z,86.53
2018-01-15T15:24:13.931Z,86.93
2018-01-15T15:26:46.000Z,87.35
2018-01-15T15:29:14.379Z,87.39
2018-01-15T15:31:46.124Z,87.39
2018-01-15T15:34:15.447Z,87.70
2018-01-15T15:36:43.790Z,88.46
2018-01-15T15:39:13.107Z,88.50
2018-01-15T15:41:41.514Z,88.69
2018-01-15T15:44:09.861Z,88.46
2018-01-15T15:46:41.951Z,88.44
2018-01-15T15:49:10.354Z,88.65
2018-01-15T15:51:42.083Z,88.52
2018-01-15T15:54:10.456Z,88.53
2018-01-15T15:56:38.820Z,88.79
2018-01-15T15:59:10.922Z,88.62
2018-01-15T16:01:42.372Z,88.75
2018-01-15T16:04:14.441Z,88.99
2018-01-15T16:06:45.859Z,89.15
2018-01-15T16:09:14.269Z,88.57
2018-01-15T16:11:47.842Z,89.03
2018-01-15T16:14:19.915Z,88.69
2018-01-15T16:16:51.975Z,88.52
2018-01-15T16:19:20.376Z,88.69
2018-01-15T16:22:06.446Z,88.78
2018-01-15T16:24:34.958Z,88.81
2018-01-15T16:27:04.261Z,88.76
2018-01-15T16:29:32.628Z,88.32
2018-01-15T16:32:01.094Z,88.08
2018-01-15T16:34:29.391Z,87.96
2018-01-15T16:36:57.755Z,87.49
2018-01-15T16:39:30.148Z,87.91
2018-01-15T16:41:58.499Z,88.04
2018-01-15T16:44:26.886Z,88.07
2018-01-15T16:46:55.294Z,87.31
2018-01-15T16:49:26.721Z,87.31
2018-01-15T16:51:59.194Z,87.29
2018-01-15T16:54:28.706Z,88.20
2018-01-15T16:56:58.034Z,87.99
2018-01-15T16:59:26.404Z,87.60
2018-01-15T17:01:54.770Z,87.60
2018-01-15T17:04:23.183Z,87.68
2018-01-15T17:06:51.523Z,88.02
2018-01-15T17:09:19.906Z,87.64
2018-01-15T17:11:48.302Z,87.62
2018-01-15T17:14:16.663Z,87.58
2018-01-15T17:16:49.367Z,88.07
2018-01-15T17:19:17.718Z,87.73
2018-01-15T17:21:49.202Z,88.06
2018-01-15T17:24:21.250Z,88.13
2018-01-15T17:26:49.639Z,88.08
2018-01-15T17:29:18.934Z,88.21
2018-01-15T17:31:47.311Z,88.61
2018-01-15T17:34:15.787Z,88.76
2018-01-15T17:36:46.223Z,88.76
2018-01-15T17:39:14.602Z,88.17
2018-01-15T17:41:46.368Z,88.65
2018-01-15T17:44:14.764Z,88.78
2018-01-15T19:13:14.296Z,89.57
2018-01-15T19:15:42.555Z,89.64
2018-01-15T19:18:11.142Z,89.25
2018-01-15T19:20:39.443Z,89.04
2018-01-15T19:23:07.715Z,89.84
2018-01-15T19:25:35.995Z,89.83
2018-01-15T19:28:04.259Z,89.45
2018-01-15T19:51:44.230Z,90.21
2018-01-15T20:12:19.823Z,90.35
2018-01-15T20:32:52.932Z,91.02
2018-01-15T20:53:29.127Z,90.85
2018-01-15T21:14:03.493Z,92.00
2018-01-15T21:34:38.438Z,92.30
2018-01-15T21:55:11.934Z,93.01
2018-01-15T22:15:48.333Z,93.48
2018-01-15T22:36:23.334Z,93.55
2018-01-15T22:57:03.868Z,93.94
2018-01-15T23:17:37.873Z,93.32
2018-01-15T23:38:15.345Z,92.77
2018-01-15T23:58:48.598Z,90.05
